sensor_id;sensor_type;location;lat;lon;timestamp;temperature;humidity
18101;DHT22;9177;49.156;8.142;2022-12-18T00:00:43;19.20;69.10
18101;DHT22;9177;49.156;8.142;2022-12-18T00:03:10;19.20;69.10
18101;DHT22;9177;49.156;8.142;2022-12-18T00:05:46;19.20;69.00
18101;DHT22;9177;49.156;8.142;2022-12-18T00:08:12;19.20;69.00
18101;DHT22;9177;49.156;8.142;2022-12-18T00:10:39;19.10;69.00
18101;DHT22;9177;49.156;8.142;2022-12-18T00:13:06;19.20;69.10
18101;DHT22;9177;49.156;8.142;2022-12-18T00:15:33;19.10;69.00
18101;DHT22;9177;49.156;8.142;2022-12-18T00:18:00;19.10;69.10
18101;DHT22;9177;49.156;8.142;2022-12-18T00:20:27;19.10;69.00
18101;DHT22;9177;49.156;8.142;2022-12-18T00:22:55;19.10;69.10
18101;DHT22;9177;49.156;8.142;2022-12-18T00:25:22;19.10;69.00
18101;DHT22;9177;49.156;8.142;2022-12-18T00:27:49;19.10;69.00
18101;DHT22;9177;49.156;8.142;2022-12-18T00:30:16;19.20;69.00
18101;DHT22;9177;49.156;8.142;2022-12-18T00:32:43;19.20;68.90
18101;DHT22;9177;49.156;8.142;2022-12-18T00:35:10;19.20;68.90
18101;DHT22;9177;49.156;8.142;2022-12-18T00:37:37;19.20;68.90
18101;DHT22;9177;49.156;8.142;2022-12-18T00:40:06;19.20;68.90
18101;DHT22;9177;49.156;8.142;2022-12-18T00:42:35;19.10;68.90
18101;DHT22;9177;49.156;8.142;2022-12-18T00:45:19;19.10;68.90
18101;DHT22;9177;49.156;8.142;2022-12-18T00:47:46;19.10;69.00
18101;DHT22;9177;49.156;8.142;2022-12-18T00:50:13;19.10;69.00
18101;DHT22;9177;49.156;8.142;2022-12-18T00:52:40;19.10;69.00
18101;DHT22;9177;49.156;8.142;2022-12-18T00:55:09;19.10;69.10
18101;DHT22;9177;49.156;8.142;2022-12-18T00:57:35;19.10;69.00
18101;DHT22;9177;49.156;8.142;2022-12-18T01:00:03;19.10;68.90
18101;DHT22;9177;49.156;8.142;2022-12-18T01:02:31;19.10;68.90
18101;DHT22;9177;49.156;8.142;2022-12-18T01:04:57;19.10;68.90
18101;DHT22;9177;49.156;8.142;2022-12-18T01:07:25;19.20;68.90
18101;DHT22;9177;49.156;8.142;2022-12-18T01:09:51;19.10;68.90
18101;DHT22;9177;49.156;8.142;2022-12-18T01:12:19;19.10;68.90
18101;DHT22;9177;49.156;8.142;2022-12-18T01:14:46;19.20;68.90
18101;DHT22;9177;49.156;8.142;2022-12-18T01:17:13;19.20;68.90
18101;DHT22;9177;49.156;8.142;2022-12-18T01:19:40;19.10;68.90
18101;DHT22;9177;49.156;8.142;2022-12-18T01:22:07;19.10;68.90
18101;DHT22;9177;49.156;8.142;2022-12-18T01:24:34;19.10;68.90
18101;DHT22;9177;49.156;8.142;2022-12-18T01:27:01;19.10;68.90
18101;DHT22;9177;49.156;8.142;2022-12-18T01:29:30;19.10;68.90
18101;DHT22;9177;49.156;8.142;2022-12-18T01:31:58;19.10;68.90
18101;DHT22;9177;49.156;8.142;2022-12-18T01:34:24;19.10;68.90
18101;DHT22;9177;49.156;8.142;2022-12-18T01:36:51;19.10;68.90
18101;DHT22;9177;49.156;8.142;2022-12-18T01:39:18;19.10;68.90
18101;DHT22;9177;49.156;8.142;2022-12-18T01:41:46;19.10;68.90
18101;DHT22;9177;49.156;8.142;2022-12-18T01:45:01;19.10;68.90
18101;DHT22;9177;49.156;8.142;2022-12-18T01:47:33;19.10;68.80
18101;DHT22;9177;49.156;8.142;2022-12-18T01:50:03;19.10;68.80
18101;DHT22;9177;49.156;8.142;2022-12-18T01:52:31;19.10;68.80
18101;DHT22;9177;49.156;8.142;2022-12-18T01:55:00;19.10;68.90
18101;DHT22;9177;49.156;8.142;2022-12-18T01:57:29;19.10;68.90
18101;DHT22;9177;49.156;8.142;2022-12-18T02:00:01;19.10;68.90
18101;DHT22;9177;49.156;8.142;2022-12-18T02:02:30;19.10;68.90
18101;DHT22;9177;49.156;8.142;2022-12-18T02:04:57;19.10;68.90
18101;DHT22;9177;49.156;8.142;2022-12-18T02:07:34;19.10;68.90
18101;DHT22;9177;49.156;8.142;2022-12-18T02:10:04;19.10;68.90
18101;DHT22;9177;49.156;8.142;2022-12-18T02:12:41;19.10;68.90
18101;DHT22;9177;49.156;8.142;2022-12-18T02:15:14;19.10;68.90
18101;DHT22;9177;49.156;8.142;2022-12-18T02:17:46;19.10;68.90
18101;DHT22;9177;49.156;8.142;2022-12-18T02:20:20;19.10;68.80
18101;DHT22;9177;49.156;8.142;2022-12-18T02:22:58;19.10;68.80
18101;DHT22;9177;49.156;8.142;2022-12-18T02:25:42;19.10;68.80
18101;DHT22;9177;49.156;8.142;2022-12-18T02:28:15;19.10;68.80
18101;DHT22;9177;49.156;8.142;2022-12-18T02:30:47;19.10;68.90
18101;DHT22;9177;49.156;8.142;2022-12-18T02:33:14;19.10;68.90
18101;DHT22;9177;49.156;8.142;2022-12-18T02:35:42;19.10;68.80
18101;DHT22;9177;49.156;8.142;2022-12-18T02:38:11;19.10;68.90
18101;DHT22;9177;49.156;8.142;2022-12-18T02:40:39;19.10;68.90
18101;DHT22;9177;49.156;8.142;2022-12-18T02:43:08;19.10;68.90
18101;DHT22;9177;49.156;8.142;2022-12-18T02:45:45;19.10;68.90
18101;DHT22;9177;49.156;8.142;2022-12-18T02:48:15;19.10;68.90
18101;DHT22;9177;49.156;8.142;2022-12-18T02:50:53;19.10;68.90
18101;DHT22;9177;49.156;8.142;2022-12-18T02:53:27;19.10;68.90
18101;DHT22;9177;49.156;8.142;2022-12-18T02:56:03;19.10;68.80
18101;DHT22;9177;49.156;8.142;2022-12-18T02:58:37;19.10;68.90
18101;DHT22;9177;49.156;8.142;2022-12-18T03:01:12;19.10;68.80
18101;DHT22;9177;49.156;8.142;2022-12-18T03:03:43;19.10;68.80
18101;DHT22;9177;49.156;8.142;2022-12-18T03:06:14;19.10;68.80
18101;DHT22;9177;49.156;8.142;2022-12-18T03:08:49;19.10;68.90
18101;DHT22;9177;49.156;8.142;2022-12-18T03:11:17;19.10;68.90
18101;DHT22;9177;49.156;8.142;2022-12-18T03:14:06;19.10;68.90
18101;DHT22;9177;49.156;8.142;2022-12-18T03:16:36;19.00;68.80
18101;DHT22;9177;49.156;8.142;2022-12-18T03:19:06;19.00;68.90
18101;DHT22;9177;49.156;8.142;2022-12-18T03:21:40;19.10;68.90
18101;DHT22;9177;49.156;8.142;2022-12-18T03:24:09;19.10;68.90
18101;DHT22;9177;49.156;8.142;2022-12-18T03:26:41;19.10;68.80
18101;DHT22;9177;49.156;8.142;2022-12-18T03:29:13;19.10;68.90
18101;DHT22;9177;49.156;8.142;2022-12-18T03:31:48;19.10;68.80
18101;DHT22;9177;49.156;8.142;2022-12-18T03:34:21;19.10;68.80
18101;DHT22;9177;49.156;8.142;2022-12-18T03:36:49;19.10;68.80
18101;DHT22;9177;49.156;8.142;2022-12-18T03:39:16;19.10;68.80
18101;DHT22;9177;49.156;8.142;2022-12-18T03:41:44;19.10;68.80
18101;DHT22;9177;49.156;8.142;2022-12-18T03:44:17;19.10;68.90
18101;DHT22;9177;49.156;8.142;2022-12-18T03:46:56;19.00;68.90
18101;DHT22;9177;49.156;8.142;2022-12-18T03:49:27;19.00;68.80
18101;DHT22;9177;49.156;8.142;2022-12-18T03:52:03;19.00;68.80
18101;DHT22;9177;49.156;8.142;2022-12-18T03:54:32;19.00;68.80
18101;DHT22;9177;49.156;8.142;2022-12-18T03:57:04;19.10;68.80
18101;DHT22;9177;49.156;8.142;2022-12-18T03:59:33;19.10;68.80
18101;DHT22;9177;49.156;8.142;2022-12-18T04:02:05;19.10;68.80
18101;DHT22;9177;49.156;8.142;2022-12-18T04:04:34;19.10;68.80
18101;DHT22;9177;49.156;8.142;2022-12-18T04:07:02;19.10;68.80
18101;DHT22;9177;49.156;8.142;2022-12-18T04:09:31;19.10;68.80
18101;DHT22;9177;49.156;8.142;2022-12-18T04:11:59;19.10;68.80
18101;DHT22;9177;49.156;8.142;2022-12-18T04:14:26;19.10;69.60
18101;DHT22;9177;49.156;8.142;2022-12-18T04:16:53;19.10;68.80
18101;DHT22;9177;49.156;8.142;2022-12-18T04:19:21;19.10;68.80
18101;DHT22;9177;49.156;8.142;2022-12-18T04:21:51;19.00;68.80
18101;DHT22;9177;49.156;8.142;2022-12-18T04:24:18;19.00;68.80
18101;DHT22;9177;49.156;8.142;2022-12-18T04:26:45;19.00;68.80
18101;DHT22;9177;49.156;8.142;2022-12-18T04:29:15;19.00;68.80
18101;DHT22;9177;49.156;8.142;2022-12-18T04:31:42;19.00;68.80
18101;DHT22;9177;49.156;8.142;2022-12-18T04:34:09;19.00;68.80
18101;DHT22;9177;49.156;8.142;2022-12-18T04:36:37;19.00;68.80
18101;DHT22;9177;49.156;8.142;2022-12-18T04:39:04;19.10;68.80
18101;DHT22;9177;49.156;8.142;2022-12-18T04:41:31;19.10;68.80
18101;DHT22;9177;49.156;8.142;2022-12-18T04:44:02;19.00;68.80
18101;DHT22;9177;49.156;8.142;2022-12-18T04:46:29;19.10;68.70
18101;DHT22;9177;49.156;8.142;2022-12-18T04:48:56;19.10;68.80
18101;DHT22;9177;49.156;8.142;2022-12-18T04:51:23;19.10;68.80
18101;DHT22;9177;49.156;8.142;2022-12-18T04:53:51;19.00;68.70
18101;DHT22;9177;49.156;8.142;2022-12-18T04:56:18;19.00;68.80
18101;DHT22;9177;49.156;8.142;2022-12-18T04:58:44;19.00;68.80
18101;DHT22;9177;49.156;8.142;2022-12-18T05:01:13;19.00;68.80
18101;DHT22;9177;49.156;8.142;2022-12-18T05:03:41;19.00;68.80
18101;DHT22;9177;49.156;8.142;2022-12-18T05:06:08;19.00;68.80
18101;DHT22;9177;49.156;8.142;2022-12-18T05:08:35;19.00;68.80
18101;DHT22;9177;49.156;8.142;2022-12-18T05:11:06;19.00;68.80
18101;DHT22;9177;49.156;8.142;2022-12-18T05:13:33;19.00;68.80
18101;DHT22;9177;49.156;8.142;2022-12-18T05:16:01;19.00;68.70
18101;DHT22;9177;49.156;8.142;2022-12-18T05:18:28;19.00;68.70
18101;DHT22;9177;49.156;8.142;2022-12-18T05:20:55;19.00;68.60
18101;DHT22;9177;49.156;8.142;2022-12-18T05:23:23;19.10;68.70
18101;DHT22;9177;49.156;8.142;2022-12-18T05:25:52;19.10;68.70
18101;DHT22;9177;49.156;8.142;2022-12-18T05:28:21;19.10;68.70
18101;DHT22;9177;49.156;8.142;2022-12-18T05:30:49;19.00;68.60
18101;DHT22;9177;49.156;8.142;2022-12-18T05:33:16;19.00;68.70
18101;DHT22;9177;49.156;8.142;2022-12-18T05:35:43;19.00;68.70
18101;DHT22;9177;49.156;8.142;2022-12-18T05:38:10;19.00;68.70
18101;DHT22;9177;49.156;8.142;2022-12-18T05:40:41;19.00;68.70
18101;DHT22;9177;49.156;8.142;2022-12-18T05:43:08;19.00;68.80
18101;DHT22;9177;49.156;8.142;2022-12-18T05:45:38;19.00;68.60
18101;DHT22;9177;49.156;8.142;2022-12-18T05:48:06;19.00;68.70
18101;DHT22;9177;49.156;8.142;2022-12-18T05:50:34;19.00;68.60
18101;DHT22;9177;49.156;8.142;2022-12-18T05:53:01;19.00;68.60
18101;DHT22;9177;49.156;8.142;2022-12-18T05:55:28;19.00;68.60
18101;DHT22;9177;49.156;8.142;2022-12-18T05:57:55;19.00;68.60
18101;DHT22;9177;49.156;8.142;2022-12-18T06:00:21;19.00;68.60
18101;DHT22;9177;49.156;8.142;2022-12-18T06:02:50;19.00;68.50
18101;DHT22;9177;49.156;8.142;2022-12-18T06:05:16;19.00;68.50
18101;DHT22;9177;49.156;8.142;2022-12-18T06:07:43;19.00;68.60
18101;DHT22;9177;49.156;8.142;2022-12-18T06:10:10;19.00;68.60
18101;DHT22;9177;49.156;8.142;2022-12-18T06:12:37;19.00;68.60
18101;DHT22;9177;49.156;8.142;2022-12-18T06:15:05;19.00;68.60
18101;DHT22;9177;49.156;8.142;2022-12-18T06:17:33;19.00;68.60
18101;DHT22;9177;49.156;8.142;2022-12-18T06:20:01;19.00;68.60
18101;DHT22;9177;49.156;8.142;2022-12-18T06:22:30;19.00;68.60
18101;DHT22;9177;49.156;8.142;2022-12-18T06:24:57;19.00;68.60
18101;DHT22;9177;49.156;8.142;2022-12-18T06:27:24;19.00;68.60
18101;DHT22;9177;49.156;8.142;2022-12-18T06:29:52;19.00;68.50
18101;DHT22;9177;49.156;8.142;2022-12-18T06:32:19;19.00;68.40
18101;DHT22;9177;49.156;8.142;2022-12-18T06:34:46;19.00;68.40
18101;DHT22;9177;49.156;8.142;2022-12-18T06:37:14;19.10;68.40
18101;DHT22;9177;49.156;8.142;2022-12-18T06:39:43;19.10;68.40
18101;DHT22;9177;49.156;8.142;2022-12-18T06:42:10;19.00;68.30
18101;DHT22;9177;49.156;8.142;2022-12-18T06:44:38;19.00;68.40
18101;DHT22;9177;49.156;8.142;2022-12-18T06:47:05;19.00;68.40
18101;DHT22;9177;49.156;8.142;2022-12-18T06:49:32;19.00;68.40
18101;DHT22;9177;49.156;8.142;2022-12-18T06:51:59;19.00;68.40
18101;DHT22;9177;49.156;8.142;2022-12-18T06:54:27;19.00;69.30
18101;DHT22;9177;49.156;8.142;2022-12-18T06:56:53;19.00;68.40
18101;DHT22;9177;49.156;8.142;2022-12-18T06:59:20;19.00;68.40
18101;DHT22;9177;49.156;8.142;2022-12-18T07:01:47;19.00;68.40
18101;DHT22;9177;49.156;8.142;2022-12-18T07:04:14;19.00;68.40
18101;DHT22;9177;49.156;8.142;2022-12-18T07:06:41;19.00;68.30
18101;DHT22;9177;49.156;8.142;2022-12-18T07:09:08;19.00;68.20
18101;DHT22;9177;49.156;8.142;2022-12-18T07:11:36;19.10;68.30
18101;DHT22;9177;49.156;8.142;2022-12-18T07:14:03;19.00;68.20
18101;DHT22;9177;49.156;8.142;2022-12-18T07:19:50;19.00;68.30
18101;DHT22;9177;49.156;8.142;2022-12-18T07:22:20;19.00;68.30
18101;DHT22;9177;49.156;8.142;2022-12-18T07:24:51;19.00;68.40
18101;DHT22;9177;49.156;8.142;2022-12-18T07:27:20;19.00;68.30
18101;DHT22;9177;49.156;8.142;2022-12-18T07:29:48;19.00;68.40
18101;DHT22;9177;49.156;8.142;2022-12-18T07:32:15;19.00;68.30
18101;DHT22;9177;49.156;8.142;2022-12-18T07:34:43;19.00;68.30
18101;DHT22;9177;49.156;8.142;2022-12-18T07:37:10;19.00;68.30
18101;DHT22;9177;49.156;8.142;2022-12-18T07:39:38;19.00;68.20
18101;DHT22;9177;49.156;8.142;2022-12-18T07:42:08;19.00;68.20
18101;DHT22;9177;49.156;8.142;2022-12-18T07:44:55;19.00;68.20
18101;DHT22;9177;49.156;8.142;2022-12-18T07:47:22;19.00;68.20
18101;DHT22;9177;49.156;8.142;2022-12-18T07:49:50;19.00;68.10
18101;DHT22;9177;49.156;8.142;2022-12-18T07:52:18;19.00;68.10
18101;DHT22;9177;49.156;8.142;2022-12-18T07:54:45;19.00;68.10
18101;DHT22;9177;49.156;8.142;2022-12-18T07:57:17;19.00;68.20
18101;DHT22;9177;49.156;8.142;2022-12-18T07:59:46;19.00;68.20
18101;DHT22;9177;49.156;8.142;2022-12-18T08:02:16;19.00;68.20
18101;DHT22;9177;49.156;8.142;2022-12-18T08:04:43;19.00;68.20
18101;DHT22;9177;49.156;8.142;2022-12-18T08:07:15;19.00;68.10
18101;DHT22;9177;49.156;8.142;2022-12-18T08:09:43;19.00;68.20
18101;DHT22;9177;49.156;8.142;2022-12-18T08:12:10;19.00;68.20
18101;DHT22;9177;49.156;8.142;2022-12-18T08:14:38;19.00;68.10
18101;DHT22;9177;49.156;8.142;2022-12-18T08:17:05;19.00;68.10
18101;DHT22;9177;49.156;8.142;2022-12-18T08:19:35;19.10;68.20
18101;DHT22;9177;49.156;8.142;2022-12-18T08:22:02;19.10;68.10
18101;DHT22;9177;49.156;8.142;2022-12-18T08:24:30;19.10;68.10
18101;DHT22;9177;49.156;8.142;2022-12-18T08:26:57;19.10;68.10
18101;DHT22;9177;49.156;8.142;2022-12-18T08:29:25;19.10;68.20
18101;DHT22;9177;49.156;8.142;2022-12-18T08:31:53;19.10;68.20
18101;DHT22;9177;49.156;8.142;2022-12-18T08:34:21;19.10;68.20
18101;DHT22;9177;49.156;8.142;2022-12-18T08:36:50;19.10;68.20
18101;DHT22;9177;49.156;8.142;2022-12-18T08:39:17;19.10;68.20
18101;DHT22;9177;49.156;8.142;2022-12-18T08:41:45;19.10;68.20
18101;DHT22;9177;49.156;8.142;2022-12-18T08:44:33;19.10;68.20
18101;DHT22;9177;49.156;8.142;2022-12-18T08:47:06;19.10;68.20
18101;DHT22;9177;49.156;8.142;2022-12-18T08:49:34;19.10;68.20
18101;DHT22;9177;49.156;8.142;2022-12-18T08:52:04;19.10;68.20
18101;DHT22;9177;49.156;8.142;2022-12-18T08:54:32;19.10;68.20
18101;DHT22;9177;49.156;8.142;2022-12-18T08:56:59;19.10;68.20
18101;DHT22;9177;49.156;8.142;2022-12-18T08:59:30;19.10;68.20
18101;DHT22;9177;49.156;8.142;2022-12-18T09:01:58;19.10;68.20
18101;DHT22;9177;49.156;8.142;2022-12-18T09:04:25;19.20;68.30
18101;DHT22;9177;49.156;8.142;2022-12-18T09:06:56;19.10;68.20
18101;DHT22;9177;49.156;8.142;2022-12-18T09:09:25;19.10;68.20
18101;DHT22;9177;49.156;8.142;2022-12-18T09:11:52;19.10;68.30
18101;DHT22;9177;49.156;8.142;2022-12-18T09:14:20;19.10;68.30
18101;DHT22;9177;49.156;8.142;2022-12-18T09:16:48;19.10;68.30
18101;DHT22;9177;49.156;8.142;2022-12-18T09:19:15;19.20;68.40
18101;DHT22;9177;49.156;8.142;2022-12-18T09:21:43;19.20;68.40
18101;DHT22;9177;49.156;8.142;2022-12-18T09:24:12;19.20;68.40
18101;DHT22;9177;49.156;8.142;2022-12-18T09:26:42;19.20;68.30
18101;DHT22;9177;49.156;8.142;2022-12-18T09:29:09;19.20;68.30
18101;DHT22;9177;49.156;8.142;2022-12-18T09:31:38;19.20;68.30
18101;DHT22;9177;49.156;8.142;2022-12-18T09:34:06;19.30;68.40
18101;DHT22;9177;49.156;8.142;2022-12-18T09:36:33;19.30;68.40
18101;DHT22;9177;49.156;8.142;2022-12-18T09:39:01;19.30;68.40
18101;DHT22;9177;49.156;8.142;2022-12-18T09:41:44;19.20;68.40
18101;DHT22;9177;49.156;8.142;2022-12-18T09:44:17;19.30;68.50
18101;DHT22;9177;49.156;8.142;2022-12-18T09:46:50;19.20;68.50
18101;DHT22;9177;49.156;8.142;2022-12-18T09:49:26;19.20;68.50
18101;DHT22;9177;49.156;8.142;2022-12-18T09:51:58;19.20;68.60
18101;DHT22;9177;49.156;8.142;2022-12-18T09:54:33;19.20;68.60
18101;DHT22;9177;49.156;8.142;2022-12-18T09:57:04;19.20;68.60
18101;DHT22;9177;49.156;8.142;2022-12-18T09:59:35;19.20;68.60
18101;DHT22;9177;49.156;8.142;2022-12-18T10:02:14;19.30;68.60
18101;DHT22;9177;49.156;8.142;2022-12-18T10:04:42;19.30;68.50
18101;DHT22;9177;49.156;8.142;2022-12-18T10:07:17;19.30;68.60
18101;DHT22;9177;49.156;8.142;2022-12-18T10:09:51;19.30;68.50
18101;DHT22;9177;49.156;8.142;2022-12-18T10:12:25;19.30;68.40
18101;DHT22;9177;49.156;8.142;2022-12-18T10:15:02;19.30;68.50
18101;DHT22;9177;49.156;8.142;2022-12-18T10:17:37;19.30;68.60
18101;DHT22;9177;49.156;8.142;2022-12-18T10:20:13;19.30;68.60
18101;DHT22;9177;49.156;8.142;2022-12-18T10:22:47;19.30;68.60
18101;DHT22;9177;49.156;8.142;2022-12-18T10:25:22;19.30;68.60
18101;DHT22;9177;49.156;8.142;2022-12-18T10:27:55;19.30;68.60
18101;DHT22;9177;49.156;8.142;2022-12-18T10:30:25;19.30;68.60
18101;DHT22;9177;49.156;8.142;2022-12-18T10:32:53;19.30;68.50
18101;DHT22;9177;49.156;8.142;2022-12-18T10:35:23;19.40;68.50
18101;DHT22;9177;49.156;8.142;2022-12-18T10:38:06;19.40;68.40
18101;DHT22;9177;49.156;8.142;2022-12-18T10:40:48;19.50;68.40
18101;DHT22;9177;49.156;8.142;2022-12-18T10:43:25;19.50;68.30
18101;DHT22;9177;49.156;8.142;2022-12-18T10:48:53;19.50;68.40
18101;DHT22;9177;49.156;8.142;2022-12-18T10:51:25;19.50;68.40
18101;DHT22;9177;49.156;8.142;2022-12-18T10:53:56;19.50;68.40
18101;DHT22;9177;49.156;8.142;2022-12-18T10:56:26;19.50;68.40
18101;DHT22;9177;49.156;8.142;2022-12-18T10:59:00;19.50;68.60
18101;DHT22;9177;49.156;8.142;2022-12-18T11:01:44;19.50;68.60
18101;DHT22;9177;49.156;8.142;2022-12-18T11:04:17;19.50;68.60
18101;DHT22;9177;49.156;8.142;2022-12-18T11:06:54;19.50;68.60
18101;DHT22;9177;49.156;8.142;2022-12-18T11:09:23;19.60;68.60
18101;DHT22;9177;49.156;8.142;2022-12-18T11:11:53;19.60;68.60
18101;DHT22;9177;49.156;8.142;2022-12-18T11:14:24;19.60;68.50
18101;DHT22;9177;49.156;8.142;2022-12-18T11:16:53;19.70;68.50
18101;DHT22;9177;49.156;8.142;2022-12-18T11:19:29;19.70;68.60
18101;DHT22;9177;49.156;8.142;2022-12-18T11:22:02;19.70;68.60
18101;DHT22;9177;49.156;8.142;2022-12-18T11:24:32;19.70;68.60
18101;DHT22;9177;49.156;8.142;2022-12-18T11:27:02;19.70;68.60
18101;DHT22;9177;49.156;8.142;2022-12-18T11:29:34;19.70;68.70
18101;DHT22;9177;49.156;8.142;2022-12-18T11:32:25;19.70;68.70
18101;DHT22;9177;49.156;8.142;2022-12-18T11:34:59;19.70;68.80
18101;DHT22;9177;49.156;8.142;2022-12-18T11:37:28;19.70;68.80
18101;DHT22;9177;49.156;8.142;2022-12-18T11:40:00;19.60;68.80
18101;DHT22;9177;49.156;8.142;2022-12-18T11:42:34;19.60;68.80
18101;DHT22;9177;49.156;8.142;2022-12-18T11:45:18;19.60;68.80
18101;DHT22;9177;49.156;8.142;2022-12-18T11:47:54;19.60;68.80
18101;DHT22;9177;49.156;8.142;2022-12-18T11:50:26;19.50;68.80
18101;DHT22;9177;49.156;8.142;2022-12-18T11:52:55;19.50;68.80
18101;DHT22;9177;49.156;8.142;2022-12-18T11:55:31;19.50;68.90
18101;DHT22;9177;49.156;8.142;2022-12-18T11:58:10;19.50;68.90
18101;DHT22;9177;49.156;8.142;2022-12-18T12:00:47;19.50;68.90
18101;DHT22;9177;49.156;8.142;2022-12-18T12:06:15;19.50;68.90
18101;DHT22;9177;49.156;8.142;2022-12-18T12:08:56;19.50;68.90
18101;DHT22;9177;49.156;8.142;2022-12-18T12:11:35;19.50;68.90
18101;DHT22;9177;49.156;8.142;2022-12-18T12:14:21;19.50;68.90
18101;DHT22;9177;49.156;8.142;2022-12-18T12:16:57;19.50;68.90
18101;DHT22;9177;49.156;8.142;2022-12-18T12:19:35;19.40;68.90
18101;DHT22;9177;49.156;8.142;2022-12-18T12:22:10;19.40;68.90
18101;DHT22;9177;49.156;8.142;2022-12-18T12:24:51;19.40;69.00
18101;DHT22;9177;49.156;8.142;2022-12-18T12:27:28;19.40;69.00
18101;DHT22;9177;49.156;8.142;2022-12-18T12:30:04;19.40;69.00
18101;DHT22;9177;49.156;8.142;2022-12-18T12:32:49;19.40;69.00
18101;DHT22;9177;49.156;8.142;2022-12-18T12:35:29;19.40;69.00
18101;DHT22;9177;49.156;8.142;2022-12-18T12:38:07;19.50;68.90
18101;DHT22;9177;49.156;8.142;2022-12-18T12:40:39;19.50;68.90
18101;DHT22;9177;49.156;8.142;2022-12-18T12:43:22;19.50;68.80
18101;DHT22;9177;49.156;8.142;2022-12-18T12:46:02;19.50;68.80
18101;DHT22;9177;49.156;8.142;2022-12-18T12:48:40;19.50;68.90
18101;DHT22;9177;49.156;8.142;2022-12-18T12:51:15;19.50;68.90
18101;DHT22;9177;49.156;8.142;2022-12-18T12:53:44;19.50;68.90
18101;DHT22;9177;49.156;8.142;2022-12-18T12:56:15;19.50;69.00
18101;DHT22;9177;49.156;8.142;2022-12-18T12:58:55;19.50;69.00
18101;DHT22;9177;49.156;8.142;2022-12-18T13:01:36;19.50;69.10
18101;DHT22;9177;49.156;8.142;2022-12-18T13:04:16;19.50;69.10
18101;DHT22;9177;49.156;8.142;2022-12-18T13:06:49;19.50;69.10
18101;DHT22;9177;49.156;8.142;2022-12-18T13:09:17;19.50;69.10
18101;DHT22;9177;49.156;8.142;2022-12-18T13:11:50;19.50;69.30
18101;DHT22;9177;49.156;8.142;2022-12-18T13:14:36;19.50;69.10
18101;DHT22;9177;49.156;8.142;2022-12-18T13:17:29;19.50;69.00
18101;DHT22;9177;49.156;8.142;2022-12-18T13:20:14;19.50;69.10
18101;DHT22;9177;49.156;8.142;2022-12-18T13:22:44;19.50;69.10
18101;DHT22;9177;49.156;8.142;2022-12-18T13:25:30;19.50;69.20
18101;DHT22;9177;49.156;8.142;2022-12-18T13:28:08;19.50;69.20
18101;DHT22;9177;49.156;8.142;2022-12-18T13:30:58;19.50;69.20
18101;DHT22;9177;49.156;8.142;2022-12-18T13:33:50;19.50;69.20
18101;DHT22;9177;49.156;8.142;2022-12-18T13:36:29;19.50;69.10
18101;DHT22;9177;49.156;8.142;2022-12-18T13:42:31;19.50;69.10
18101;DHT22;9177;49.156;8.142;2022-12-18T13:45:44;19.50;69.10
18101;DHT22;9177;49.156;8.142;2022-12-18T13:48:23;19.50;69.10
18101;DHT22;9177;49.156;8.142;2022-12-18T13:51:00;19.50;69.10
18101;DHT22;9177;49.156;8.142;2022-12-18T13:53:35;19.40;69.10
18101;DHT22;9177;49.156;8.142;2022-12-18T13:56:04;19.40;69.10
18101;DHT22;9177;49.156;8.142;2022-12-18T13:58:32;19.40;69.20
18101;DHT22;9177;49.156;8.142;2022-12-18T14:01:00;19.40;69.20
18101;DHT22;9177;49.156;8.142;2022-12-18T14:03:30;19.40;69.20
18101;DHT22;9177;49.156;8.142;2022-12-18T14:13:28;19.40;68.80
18101;DHT22;9177;49.156;8.142;2022-12-18T14:15:56;19.30;68.60
18101;DHT22;9177;49.156;8.142;2022-12-18T14:18:28;19.40;68.70
18101;DHT22;9177;49.156;8.142;2022-12-18T14:21:02;19.40;68.70
18101;DHT22;9177;49.156;8.142;2022-12-18T14:23:33;19.40;68.60
18101;DHT22;9177;49.156;8.142;2022-12-18T14:26:00;19.30;68.70
18101;DHT22;9177;49.156;8.142;2022-12-18T14:28:29;19.30;68.80
18101;DHT22;9177;49.156;8.142;2022-12-18T14:30:56;19.30;69.00
18101;DHT22;9177;49.156;8.142;2022-12-18T14:33:26;19.30;69.00
18101;DHT22;9177;49.156;8.142;2022-12-18T14:35:56;19.30;69.10
18101;DHT22;9177;49.156;8.142;2022-12-18T14:38:29;19.30;69.10
18101;DHT22;9177;49.156;8.142;2022-12-18T14:40:57;19.30;69.00
18101;DHT22;9177;49.156;8.142;2022-12-18T14:43:31;19.30;69.00
18101;DHT22;9177;49.156;8.142;2022-12-18T14:45:59;19.30;68.90
18101;DHT22;9177;49.156;8.142;2022-12-18T14:48:38;19.40;68.90
18101;DHT22;9177;49.156;8.142;2022-12-18T14:51:12;19.40;68.90
18101;DHT22;9177;49.156;8.142;2022-12-18T14:53:44;19.40;69.00
18101;DHT22;9177;49.156;8.142;2022-12-18T14:56:16;19.40;69.10
18101;DHT22;9177;49.156;8.142;2022-12-18T15:01:45;19.30;69.10
18101;DHT22;9177;49.156;8.142;2022-12-18T15:04:26;19.30;69.20
18101;DHT22;9177;49.156;8.142;2022-12-18T15:07:25;19.30;69.10
18101;DHT22;9177;49.156;8.142;2022-12-18T15:10:13;19.30;69.10
18101;DHT22;9177;49.156;8.142;2022-12-18T15:12:42;19.30;69.10
18101;DHT22;9177;49.156;8.142;2022-12-18T15:29:17;19.40;69.20
18101;DHT22;9177;49.156;8.142;2022-12-18T15:31:59;19.30;69.20
18101;DHT22;9177;49.156;8.142;2022-12-18T15:34:27;19.30;69.30
18101;DHT22;9177;49.156;8.142;2022-12-18T15:36:54;19.30;69.30
18101;DHT22;9177;49.156;8.142;2022-12-18T15:39:22;19.30;69.30
18101;DHT22;9177;49.156;8.142;2022-12-18T15:41:49;19.30;69.30
18101;DHT22;9177;49.156;8.142;2022-12-18T15:44:35;19.30;69.30
18101;DHT22;9177;49.156;8.142;2022-12-18T15:47:02;19.30;69.30
18101;DHT22;9177;49.156;8.142;2022-12-18T15:49:29;19.30;69.20
18101;DHT22;9177;49.156;8.142;2022-12-18T15:57:10;19.30;69.20
18101;DHT22;9177;49.156;8.142;2022-12-18T15:59:53;19.30;69.20
18101;DHT22;9177;49.156;8.142;2022-12-18T16:02:24;19.30;69.20
18101;DHT22;9177;49.156;8.142;2022-12-18T16:04:55;19.30;69.30
18101;DHT22;9177;49.156;8.142;2022-12-18T16:07:29;19.30;69.30
18101;DHT22;9177;49.156;8.142;2022-12-18T16:12:31;19.30;69.30
18101;DHT22;9177;49.156;8.142;2022-12-18T16:15:00;19.30;69.40
18101;DHT22;9177;49.156;8.142;2022-12-18T16:17:27;19.30;69.40
18101;DHT22;9177;49.156;8.142;2022-12-18T16:19:54;19.30;69.40
18101;DHT22;9177;49.156;8.142;2022-12-18T16:22:22;19.30;69.40
18101;DHT22;9177;49.156;8.142;2022-12-18T16:24:50;19.30;69.40
18101;DHT22;9177;49.156;8.142;2022-12-18T16:27:18;19.30;69.40
18101;DHT22;9177;49.156;8.142;2022-12-18T16:29:45;19.30;69.60
18101;DHT22;9177;49.156;8.142;2022-12-18T16:32:15;19.30;69.50
18101;DHT22;9177;49.156;8.142;2022-12-18T16:34:42;19.30;69.40
18101;DHT22;9177;49.156;8.142;2022-12-18T16:37:11;19.30;69.40
18101;DHT22;9177;49.156;8.142;2022-12-18T16:39:39;19.30;69.50
18101;DHT22;9177;49.156;8.142;2022-12-18T16:42:10;19.30;69.50
18101;DHT22;9177;49.156;8.142;2022-12-18T16:44:40;19.30;69.60
18101;DHT22;9177;49.156;8.142;2022-12-18T16:47:07;19.30;69.60
18101;DHT22;9177;49.156;8.142;2022-12-18T16:49:36;19.30;69.60
18101;DHT22;9177;49.156;8.142;2022-12-18T16:52:03;19.30;69.60
18101;DHT22;9177;49.156;8.142;2022-12-18T16:54:30;19.30;69.50